sensor_id;sensor_type;location;lat;lon;timestamp;P1;durP1;ratioP1;P2;durP2;ratioP2
12407;SDS011;6268;48.188;17.134;2023-07-29T00:01:46;2.70;;;2.50;;
12407;SDS011;6268;48.188;17.134;2023-07-29T00:04:17;2.75;;;2.50;;
12407;SDS011;6268;48.188;17.134;2023-07-29T00:07:38;3.85;;;2.33;;
12407;SDS011;6268;48.188;17.134;2023-07-29T00:10:59;2.78;;;2.67;;
12407;SDS011;6268;48.188;17.134;2023-07-29T00:14:21;2.40;;;2.30;;
12407;SDS011;6268;48.188;17.134;2023-07-29T00:17:42;2.30;;;2.20;;
12407;SDS011;6268;48.188;17.134;2023-07-29T00:21:05;2.40;;;2.30;;
12407;SDS011;6268;48.188;17.134;2023-07-29T00:24:26;2.47;;;2.38;;
12407;SDS011;6268;48.188;17.134;2023-07-29T00:27:47;2.70;;;2.50;;
12407;SDS011;6268;48.188;17.134;2023-07-29T00:31:08;2.90;;;2.75;;
12407;SDS011;6268;48.188;17.134;2023-07-29T00:34:30;2.33;;;2.20;;
12407;SDS011;6268;48.188;17.134;2023-07-29T00:37:52;2.38;;;2.28;;
12407;SDS011;6268;48.188;17.134;2023-07-29T00:41:14;2.25;;;2.15;;
12407;SDS011;6268;48.188;17.134;2023-07-29T00:44:36;2.60;;;2.50;;
12407;SDS011;6268;48.188;17.134;2023-07-29T00:47:59;2.60;;;2.50;;
12407;SDS011;6268;48.188;17.134;2023-07-29T00:51:21;2.40;;;2.30;;
12407;SDS011;6268;48.188;17.134;2023-07-29T00:54:44;2.53;;;2.33;;
12407;SDS011;6268;48.188;17.134;2023-07-29T00:58:05;2.78;;;2.60;;
12407;SDS011;6268;48.188;17.134;2023-07-29T01:01:28;2.58;;;2.45;;
12407;SDS011;6268;48.188;17.134;2023-07-29T01:04:51;2.70;;;2.60;;
12407;SDS011;6268;48.188;17.134;2023-07-29T01:08:21;2.70;;;2.60;;
12407;SDS011;6268;48.188;17.134;2023-07-29T01:12:01;2.58;;;2.40;;
12407;SDS011;6268;48.188;17.134;2023-07-29T01:15:36;3.20;;;3.00;;
12407;SDS011;6268;48.188;17.134;2023-07-29T01:19:05;2.90;;;2.70;;
12407;SDS011;6268;48.188;17.134;2023-07-29T01:22:29;2.70;;;2.50;;
12407;SDS011;6268;48.188;17.134;2023-07-29T01:25:53;2.50;;;2.40;;
12407;SDS011;6268;48.188;17.134;2023-07-29T01:29:11;2.60;;;2.50;;
12407;SDS011;6268;48.188;17.134;2023-07-29T01:32:35;3.25;;;2.72;;
12407;SDS011;6268;48.188;17.134;2023-07-29T01:36:03;2.70;;;2.50;;
12407;SDS011;6268;48.188;17.134;2023-07-29T01:39:32;2.60;;;2.50;;
12407;SDS011;6268;48.188;17.134;2023-07-29T01:42:57;3.10;;;2.90;;
12407;SDS011;6268;48.188;17.134;2023-07-29T01:46:19;2.83;;;2.63;;
12407;SDS011;6268;48.188;17.134;2023-07-29T01:49:17;2.65;;;2.45;;
12407;SDS011;6268;48.188;17.134;2023-07-29T01:51:46;3.00;;;2.78;;
12407;SDS011;6268;48.188;17.134;2023-07-29T01:54:15;2.40;;;2.20;;
12407;SDS011;6268;48.188;17.134;2023-07-29T01:56:45;2.72;;;2.63;;
12407;SDS011;6268;48.188;17.134;2023-07-29T01:59:13;3.05;;;2.78;;
12407;SDS011;6268;48.188;17.134;2023-07-29T02:01:43;3.88;;;2.78;;
12407;SDS011;6268;48.188;17.134;2023-07-29T02:04:13;2.80;;;2.60;;
12407;SDS011;6268;48.188;17.134;2023-07-29T02:06:41;2.83;;;2.53;;
12407;SDS011;6268;48.188;17.134;2023-07-29T02:09:10;2.80;;;2.60;;
12407;SDS011;6268;48.188;17.134;2023-07-29T02:11:39;3.05;;;2.45;;
12407;SDS011;6268;48.188;17.134;2023-07-29T02:14:09;2.80;;;2.60;;
12407;SDS011;6268;48.188;17.134;2023-07-29T02:16:37;3.17;;;2.97;;
12407;SDS011;6268;48.188;17.134;2023-07-29T02:19:07;3.17;;;2.97;;
12407;SDS011;6268;48.188;17.134;2023-07-29T02:21:35;2.83;;;2.63;;
12407;SDS011;6268;48.188;17.134;2023-07-29T02:24:04;3.70;;;3.40;;
12407;SDS011;6268;48.188;17.134;2023-07-29T02:26:32;2.70;;;2.50;;
12407;SDS011;6268;48.188;17.134;2023-07-29T02:29:02;3.10;;;2.80;;
12407;SDS011;6268;48.188;17.134;2023-07-29T02:31:32;3.03;;;2.83;;
12407;SDS011;6268;48.188;17.134;2023-07-29T02:34:03;2.70;;;2.50;;
12407;SDS011;6268;48.188;17.134;2023-07-29T02:36:32;3.05;;;2.85;;
12407;SDS011;6268;48.188;17.134;2023-07-29T02:39:01;3.08;;;2.88;;
12407;SDS011;6268;48.188;17.134;2023-07-29T02:41:30;3.55;;;3.25;;
12407;SDS011;6268;48.188;17.134;2023-07-29T02:43:58;2.72;;;2.55;;
12407;SDS011;6268;48.188;17.134;2023-07-29T02:46:27;3.00;;;2.80;;
12407;SDS011;6268;48.188;17.134;2023-07-29T02:48:57;3.00;;;2.80;;
12407;SDS011;6268;48.188;17.134;2023-07-29T02:51:26;2.80;;;2.60;;
12407;SDS011;6268;48.188;17.134;2023-07-29T02:53:54;3.22;;;2.92;;
12407;SDS011;6268;48.188;17.134;2023-07-29T02:56:23;3.00;;;2.90;;
12407;SDS011;6268;48.188;17.134;2023-07-29T02:58:52;2.80;;;2.70;;
12407;SDS011;6268;48.188;17.134;2023-07-29T03:01:21;3.28;;;3.00;;
12407;SDS011;6268;48.188;17.134;2023-07-29T03:03:51;2.40;;;2.20;;
12407;SDS011;6268;48.188;17.134;2023-07-29T03:06:22;3.10;;;2.90;;
12407;SDS011;6268;48.188;17.134;2023-07-29T03:08:51;3.00;;;2.80;;
12407;SDS011;6268;48.188;17.134;2023-07-29T03:11:19;3.13;;;2.92;;
12407;SDS011;6268;48.188;17.134;2023-07-29T03:13:48;3.00;;;2.80;;
12407;SDS011;6268;48.188;17.134;2023-07-29T03:16:17;3.20;;;2.90;;
12407;SDS011;6268;48.188;17.134;2023-07-29T03:18:46;3.45;;;3.15;;
12407;SDS011;6268;48.188;17.134;2023-07-29T03:21:17;3.10;;;2.90;;
12407;SDS011;6268;48.188;17.134;2023-07-29T03:23:46;2.55;;;2.40;;
12407;SDS011;6268;48.188;17.134;2023-07-29T03:26:15;3.30;;;2.55;;
12407;SDS011;6268;48.188;17.134;2023-07-29T03:28:44;5.72;;;3.20;;
12407;SDS011;6268;48.188;17.134;2023-07-29T03:31:12;2.83;;;2.72;;
12407;SDS011;6268;48.188;17.134;2023-07-29T03:33:41;3.50;;;3.30;;
12407;SDS011;6268;48.188;17.134;2023-07-29T03:36:09;3.10;;;2.90;;
12407;SDS011;6268;48.188;17.134;2023-07-29T03:38:38;3.03;;;2.83;;
12407;SDS011;6268;48.188;17.134;2023-07-29T03:41:08;3.10;;;2.80;;
12407;SDS011;6268;48.188;17.134;2023-07-29T03:43:37;2.97;;;2.88;;
12407;SDS011;6268;48.188;17.134;2023-07-29T03:46:06;3.45;;;3.03;;
12407;SDS011;6268;48.188;17.134;2023-07-29T03:48:38;3.38;;;3.08;;
12407;SDS011;6268;48.188;17.134;2023-07-29T03:51:06;3.35;;;3.15;;
12407;SDS011;6268;48.188;17.134;2023-07-29T03:53:35;3.25;;;3.05;;
12407;SDS011;6268;48.188;17.134;2023-07-29T03:56:04;3.45;;;3.20;;
12407;SDS011;6268;48.188;17.134;2023-07-29T03:58:34;3.28;;;3.08;;
12407;SDS011;6268;48.188;17.134;2023-07-29T04:01:02;3.47;;;3.22;;
12407;SDS011;6268;48.188;17.134;2023-07-29T04:03:32;3.38;;;3.17;;
12407;SDS011;6268;48.188;17.134;2023-07-29T04:06:02;2.88;;;2.75;;
12407;SDS011;6268;48.188;17.134;2023-07-29T04:08:31;3.30;;;3.10;;
12407;SDS011;6268;48.188;17.134;2023-07-29T04:10:59;3.35;;;3.15;;
12407;SDS011;6268;48.188;17.134;2023-07-29T04:13:28;3.10;;;2.90;;
12407;SDS011;6268;48.188;17.134;2023-07-29T04:15:58;2.92;;;2.72;;
12407;SDS011;6268;48.188;17.134;2023-07-29T04:18:27;2.95;;;2.75;;
12407;SDS011;6268;48.188;17.134;2023-07-29T04:20:56;3.30;;;3.10;;
12407;SDS011;6268;48.188;17.134;2023-07-29T04:23:24;3.05;;;2.75;;
12407;SDS011;6268;48.188;17.134;2023-07-29T04:25:53;3.63;;;3.33;;
12407;SDS011;6268;48.188;17.134;2023-07-29T04:28:22;3.05;;;2.85;;
12407;SDS011;6268;48.188;17.134;2023-07-29T04:30:51;3.05;;;2.92;;
12407;SDS011;6268;48.188;17.134;2023-07-29T04:33:21;3.55;;;3.25;;
12407;SDS011;6268;48.188;17.134;2023-07-29T04:35:58;2.90;;;2.80;;
12407;SDS011;6268;48.188;17.134;2023-07-29T04:38:29;3.60;;;3.30;;
12407;SDS011;6268;48.188;17.134;2023-07-29T04:41:00;3.45;;;3.22;;
12407;SDS011;6268;48.188;17.134;2023-07-29T04:43:30;3.75;;;3.40;;
12407;SDS011;6268;48.188;17.134;2023-07-29T04:46:00;3.15;;;2.90;;
12407;SDS011;6268;48.188;17.134;2023-07-29T04:48:31;3.70;;;3.40;;
12407;SDS011;6268;48.188;17.134;2023-07-29T04:50:59;3.30;;;3.10;;
12407;SDS011;6268;48.188;17.134;2023-07-29T04:53:28;3.25;;;3.05;;
12407;SDS011;6268;48.188;17.134;2023-07-29T04:55:57;3.10;;;2.90;;
12407;SDS011;6268;48.188;17.134;2023-07-29T04:58:26;3.15;;;2.90;;
12407;SDS011;6268;48.188;17.134;2023-07-29T05:00:55;3.47;;;3.25;;
12407;SDS011;6268;48.188;17.134;2023-07-29T05:03:24;3.13;;;3.00;;
12407;SDS011;6268;48.188;17.134;2023-07-29T05:05:54;3.22;;;3.03;;
12407;SDS011;6268;48.188;17.134;2023-07-29T05:08:23;3.85;;;3.55;;
12407;SDS011;6268;48.188;17.134;2023-07-29T05:10:52;3.20;;;3.00;;
12407;SDS011;6268;48.188;17.134;2023-07-29T05:13:22;2.97;;;2.78;;
12407;SDS011;6268;48.188;17.134;2023-07-29T05:15:51;3.28;;;3.08;;
12407;SDS011;6268;48.188;17.134;2023-07-29T05:18:20;2.90;;;2.70;;
12407;SDS011;6268;48.188;17.134;2023-07-29T05:20:49;3.38;;;3.13;;
12407;SDS011;6268;48.188;17.134;2023-07-29T05:23:19;3.25;;;3.05;;
12407;SDS011;6268;48.188;17.134;2023-07-29T05:25:47;3.55;;;3.25;;
12407;SDS011;6268;48.188;17.134;2023-07-29T05:28:16;3.38;;;3.17;;
12407;SDS011;6268;48.188;17.134;2023-07-29T05:30:45;3.40;;;3.20;;
12407;SDS011;6268;48.188;17.134;2023-07-29T05:33:13;2.95;;;2.75;;
12407;SDS011;6268;48.188;17.134;2023-07-29T05:35:42;3.55;;;3.35;;
12407;SDS011;6268;48.188;17.134;2023-07-29T05:38:13;3.10;;;2.90;;
12407;SDS011;6268;48.188;17.134;2023-07-29T05:40:43;3.38;;;3.17;;
12407;SDS011;6268;48.188;17.134;2023-07-29T05:43:12;3.35;;;3.15;;
12407;SDS011;6268;48.188;17.134;2023-07-29T05:45:41;2.97;;;2.85;;
12407;SDS011;6268;48.188;17.134;2023-07-29T05:48:10;3.13;;;2.92;;
12407;SDS011;6268;48.188;17.134;2023-07-29T05:50:39;3.22;;;2.97;;
12407;SDS011;6268;48.188;17.134;2023-07-29T05:53:07;2.80;;;2.60;;
12407;SDS011;6268;48.188;17.134;2023-07-29T05:55:36;3.85;;;3.10;;
12407;SDS011;6268;48.188;17.134;2023-07-29T05:58:06;3.30;;;3.10;;
12407;SDS011;6268;48.188;17.134;2023-07-29T06:00:34;2.88;;;2.72;;
12407;SDS011;6268;48.188;17.134;2023-07-29T06:03:03;3.28;;;2.53;;
12407;SDS011;6268;48.188;17.134;2023-07-29T06:05:32;2.60;;;2.40;;
12407;SDS011;6268;48.188;17.134;2023-07-29T06:08:01;2.53;;;2.42;;
12407;SDS011;6268;48.188;17.134;2023-07-29T06:10:30;2.72;;;2.55;;
12407;SDS011;6268;48.188;17.134;2023-07-29T06:12:59;2.35;;;2.25;;
12407;SDS011;6268;48.188;17.134;2023-07-29T06:15:29;2.67;;;2.58;;
12407;SDS011;6268;48.188;17.134;2023-07-29T06:17:58;2.28;;;2.17;;
12407;SDS011;6268;48.188;17.134;2023-07-29T06:20:27;2.30;;;2.20;;
12407;SDS011;6268;48.188;17.134;2023-07-29T06:22:56;2.60;;;2.50;;
12407;SDS011;6268;48.188;17.134;2023-07-29T06:25:25;2.45;;;2.33;;
12407;SDS011;6268;48.188;17.134;2023-07-29T06:27:54;2.40;;;2.13;;
12407;SDS011;6268;48.188;17.134;2023-07-29T06:30:25;2.60;;;2.22;;
12407;SDS011;6268;48.188;17.134;2023-07-29T06:32:55;2.35;;;2.25;;
12407;SDS011;6268;48.188;17.134;2023-07-29T06:35:24;2.60;;;2.40;;
12407;SDS011;6268;48.188;17.134;2023-07-29T06:37:52;2.30;;;2.15;;
12407;SDS011;6268;48.188;17.134;2023-07-29T06:40:21;2.20;;;2.10;;
12407;SDS011;6268;48.188;17.134;2023-07-29T06:42:50;2.42;;;1.83;;
12407;SDS011;6268;48.188;17.134;2023-07-29T06:45:19;2.53;;;2.25;;
12407;SDS011;6268;48.188;17.134;2023-07-29T06:47:47;3.00;;;2.65;;
12407;SDS011;6268;48.188;17.134;2023-07-29T06:50:17;2.38;;;2.28;;
12407;SDS011;6268;48.188;17.134;2023-07-29T06:52:46;1.80;;;1.70;;
12407;SDS011;6268;48.188;17.134;2023-07-29T06:55:15;6.10;;;4.40;;
12407;SDS011;6268;48.188;17.134;2023-07-29T06:57:43;2.70;;;2.55;;
12407;SDS011;6268;48.188;17.134;2023-07-29T07:00:12;2.88;;;1.67;;
12407;SDS011;6268;48.188;17.134;2023-07-29T07:02:41;1.30;;;1.30;;
12407;SDS011;6268;48.188;17.134;2023-07-29T07:05:10;2.10;;;2.00;;
12407;SDS011;6268;48.188;17.134;2023-07-29T07:07:41;2.33;;;2.13;;
12407;SDS011;6268;48.188;17.134;2023-07-29T07:10:09;2.10;;;2.00;;
12407;SDS011;6268;48.188;17.134;2023-07-29T07:12:38;1.55;;;1.45;;
12407;SDS011;6268;48.188;17.134;2023-07-29T07:15:07;1.80;;;1.55;;
12407;SDS011;6268;48.188;17.134;2023-07-29T07:17:36;3.75;;;2.10;;
12407;SDS011;6268;48.188;17.134;2023-07-29T07:20:06;2.25;;;2.15;;
12407;SDS011;6268;48.188;17.134;2023-07-29T07:22:35;1.77;;;1.42;;
12407;SDS011;6268;48.188;17.134;2023-07-29T07:25:05;2.88;;;2.67;;
12407;SDS011;6268;48.188;17.134;2023-07-29T07:27:36;2.47;;;1.58;;
12407;SDS011;6268;48.188;17.134;2023-07-29T07:30:05;1.77;;;1.67;;
12407;SDS011;6268;48.188;17.134;2023-07-29T07:32:35;2.00;;;1.90;;
12407;SDS011;6268;48.188;17.134;2023-07-29T07:35:04;1.48;;;1.38;;
12407;SDS011;6268;48.188;17.134;2023-07-29T07:37:33;1.55;;;1.45;;
12407;SDS011;6268;48.188;17.134;2023-07-29T07:40:03;1.63;;;1.52;;
12407;SDS011;6268;48.188;17.134;2023-07-29T07:42:35;1.92;;;1.83;;
12407;SDS011;6268;48.188;17.134;2023-07-29T07:45:04;4.15;;;1.05;;
12407;SDS011;6268;48.188;17.134;2023-07-29T07:47:33;3.42;;;1.13;;
12407;SDS011;6268;48.188;17.134;2023-07-29T07:50:02;1.60;;;1.25;;
12407;SDS011;6268;48.188;17.134;2023-07-29T07:52:32;1.30;;;1.20;;
12407;SDS011;6268;48.188;17.134;2023-07-29T07:55:00;1.75;;;1.50;;
12407;SDS011;6268;48.188;17.134;2023-07-29T07:57:31;1.55;;;1.45;;
12407;SDS011;6268;48.188;17.134;2023-07-29T07:59:59;2.55;;;1.83;;
12407;SDS011;6268;48.188;17.134;2023-07-29T08:02:28;2.88;;;1.48;;
12407;SDS011;6268;48.188;17.134;2023-07-29T08:04:57;1.92;;;1.75;;
12407;SDS011;6268;48.188;17.134;2023-07-29T08:07:25;2.90;;;1.90;;
12407;SDS011;6268;48.188;17.134;2023-07-29T08:09:54;14.02;;;4.18;;
12407;SDS011;6268;48.188;17.134;2023-07-29T08:12:23;2.97;;;1.65;;
12407;SDS011;6268;48.188;17.134;2023-07-29T08:14:53;2.20;;;1.55;;
12407;SDS011;6268;48.188;17.134;2023-07-29T08:17:22;3.90;;;0.90;;
12407;SDS011;6268;48.188;17.134;2023-07-29T08:19:51;1.30;;;1.20;;
12407;SDS011;6268;48.188;17.134;2023-07-29T08:22:19;1.55;;;1.20;;
12407;SDS011;6268;48.188;17.134;2023-07-29T08:24:48;1.33;;;1.10;;
12407;SDS011;6268;48.188;17.134;2023-07-29T08:27:17;0.88;;;0.88;;
12407;SDS011;6268;48.188;17.134;2023-07-29T08:29:45;0.93;;;0.93;;
12407;SDS011;6268;48.188;17.134;2023-07-29T08:32:16;1.23;;;1.13;;
12407;SDS011;6268;48.188;17.134;2023-07-29T08:34:44;1.85;;;0.80;;
12407;SDS011;6268;48.188;17.134;2023-07-29T08:37:13;0.95;;;0.95;;
12407;SDS011;6268;48.188;17.134;2023-07-29T08:39:42;1.00;;;1.00;;
12407;SDS011;6268;48.188;17.134;2023-07-29T08:42:11;0.88;;;0.80;;
12407;SDS011;6268;48.188;17.134;2023-07-29T08:44:41;2.03;;;1.10;;
12407;SDS011;6268;48.188;17.134;2023-07-29T08:47:11;1.85;;;1.60;;
12407;SDS011;6268;48.188;17.134;2023-07-29T08:49:44;1.77;;;1.48;;
12407;SDS011;6268;48.188;17.134;2023-07-29T08:52:14;0.82;;;0.70;;
12407;SDS011;6268;48.188;17.134;2023-07-29T08:54:44;1.85;;;0.77;;
12407;SDS011;6268;48.188;17.134;2023-07-29T08:57:13;0.60;;;0.60;;
12407;SDS011;6268;48.188;17.134;2023-07-29T08:59:42;0.85;;;0.85;;
12407;SDS011;6268;48.188;17.134;2023-07-29T09:02:13;1.35;;;0.73;;
12407;SDS011;6268;48.188;17.134;2023-07-29T09:04:44;1.05;;;0.80;;
12407;SDS011;6268;48.188;17.134;2023-07-29T09:07:12;0.80;;;0.80;;
12407;SDS011;6268;48.188;17.134;2023-07-29T09:09:41;0.80;;;0.80;;
12407;SDS011;6268;48.188;17.134;2023-07-29T09:12:10;0.70;;;0.70;;
12407;SDS011;6268;48.188;17.134;2023-07-29T09:14:39;0.90;;;0.90;;
12407;SDS011;6268;48.188;17.134;2023-07-29T09:17:08;0.82;;;0.82;;
12407;SDS011;6268;48.188;17.134;2023-07-29T09:19:37;0.95;;;0.90;;
12407;SDS011;6268;48.188;17.134;2023-07-29T09:22:10;1.35;;;0.90;;
12407;SDS011;6268;48.188;17.134;2023-07-29T09:24:46;1.00;;;1.00;;
12407;SDS011;6268;48.188;17.134;2023-07-29T09:27:24;1.63;;;1.17;;
12407;SDS011;6268;48.188;17.134;2023-07-29T09:29:53;1.15;;;1.10;;
12407;SDS011;6268;48.188;17.134;2023-07-29T09:32:23;2.00;;;1.77;;
12407;SDS011;6268;48.188;17.134;2023-07-29T09:34:53;2.60;;;1.50;;
12407;SDS011;6268;48.188;17.134;2023-07-29T09:37:23;1.42;;;1.33;;
12407;SDS011;6268;48.188;17.134;2023-07-29T09:39:52;1.30;;;1.27;;
12407;SDS011;6268;48.188;17.134;2023-07-29T09:42:21;1.85;;;0.90;;
12407;SDS011;6268;48.188;17.134;2023-07-29T09:44:51;1.30;;;1.20;;
12407;SDS011;6268;48.188;17.134;2023-07-29T09:47:20;1.27;;;1.27;;
12407;SDS011;6268;48.188;17.134;2023-07-29T09:49:50;1.75;;;1.15;;
12407;SDS011;6268;48.188;17.134;2023-07-29T09:52:20;1.30;;;1.20;;
12407;SDS011;6268;48.188;17.134;2023-07-29T09:54:52;1.42;;;1.10;;
12407;SDS011;6268;48.188;17.134;2023-07-29T09:57:22;0.90;;;0.90;;
12407;SDS011;6268;48.188;17.134;2023-07-29T09:59:54;0.88;;;0.88;;
12407;SDS011;6268;48.188;17.134;2023-07-29T10:02:24;0.98;;;0.98;;
12407;SDS011;6268;48.188;17.134;2023-07-29T10:04:56;0.68;;;0.68;;
12407;SDS011;6268;48.188;17.134;2023-07-29T10:07:27;0.82;;;0.82;;
12407;SDS011;6268;48.188;17.134;2023-07-29T10:09:57;4.32;;;0.70;;
12407;SDS011;6268;48.188;17.134;2023-07-29T10:12:27;2.88;;;0.93;;
12407;SDS011;6268;48.188;17.134;2023-07-29T10:14:59;1.30;;;0.90;;
12407;SDS011;6268;48.188;17.134;2023-07-29T10:17:28;0.85;;;0.85;;
12407;SDS011;6268;48.188;17.134;2023-07-29T10:19:58;3.08;;;1.17;;
12407;SDS011;6268;48.188;17.134;2023-07-29T10:22:33;0.95;;;0.95;;
12407;SDS011;6268;48.188;17.134;2023-07-29T10:25:07;0.93;;;0.93;;
12407;SDS011;6268;48.188;17.134;2023-07-29T10:27:43;1.02;;;1.02;;
12407;SDS011;6268;48.188;17.134;2023-07-29T10:30:17;0.90;;;0.90;;
12407;SDS011;6268;48.188;17.134;2023-07-29T10:32:46;0.85;;;0.85;;
12407;SDS011;6268;48.188;17.134;2023-07-29T10:35:17;1.10;;;1.10;;
12407;SDS011;6268;48.188;17.134;2023-07-29T10:37:48;1.08;;;0.85;;
12407;SDS011;6268;48.188;17.134;2023-07-29T10:40:18;1.27;;;0.95;;
12407;SDS011;6268;48.188;17.134;2023-07-29T10:43:00;0.60;;;0.60;;
12407;SDS011;6268;48.188;17.134;2023-07-29T10:45:36;0.82;;;0.82;;
12407;SDS011;6268;48.188;17.134;2023-07-29T10:48:06;1.08;;;1.08;;
12407;SDS011;6268;48.188;17.134;2023-07-29T10:50:38;0.85;;;0.85;;
12407;SDS011;6268;48.188;17.134;2023-07-29T10:53:08;1.42;;;0.80;;
12407;SDS011;6268;48.188;17.134;2023-07-29T10:55:37;1.45;;;1.10;;
12407;SDS011;6268;48.188;17.134;2023-07-29T10:58:12;2.08;;;1.20;;
12407;SDS011;6268;48.188;17.134;2023-07-29T11:00:43;1.08;;;1.08;;
12407;SDS011;6268;48.188;17.134;2023-07-29T11:03:13;0.82;;;0.82;;
12407;SDS011;6268;48.188;17.134;2023-07-29T11:05:43;0.75;;;0.75;;
12407;SDS011;6268;48.188;17.134;2023-07-29T11:08:19;1.00;;;1.00;;
12407;SDS011;6268;48.188;17.134;2023-07-29T11:10:57;0.95;;;0.95;;
12407;SDS011;6268;48.188;17.134;2023-07-29T11:13:29;1.95;;;1.17;;
12407;SDS011;6268;48.188;17.134;2023-07-29T11:16:00;1.10;;;1.10;;
12407;SDS011;6268;48.188;17.134;2023-07-29T11:18:30;0.85;;;0.80;;
12407;SDS011;6268;48.188;17.134;2023-07-29T11:21:01;1.23;;;1.02;;
12407;SDS011;6268;48.188;17.134;2023-07-29T11:23:34;2.08;;;1.10;;
12407;SDS011;6268;48.188;17.134;2023-07-29T11:26:04;1.58;;;1.08;;
12407;SDS011;6268;48.188;17.134;2023-07-29T11:28:37;0.93;;;0.93;;
12407;SDS011;6268;48.188;17.134;2023-07-29T11:31:07;1.35;;;1.27;;
12407;SDS011;6268;48.188;17.134;2023-07-29T11:33:38;1.48;;;1.38;;
12407;SDS011;6268;48.188;17.134;2023-07-29T11:36:16;1.92;;;1.42;;
12407;SDS011;6268;48.188;17.134;2023-07-29T11:38:48;1.80;;;1.70;;
12407;SDS011;6268;48.188;17.134;2023-07-29T11:41:19;2.17;;;1.98;;
12407;SDS011;6268;48.188;17.134;2023-07-29T11:43:49;2.00;;;1.80;;
12407;SDS011;6268;48.188;17.134;2023-07-29T11:46:20;1.90;;;1.80;;
12407;SDS011;6268;48.188;17.134;2023-07-29T11:48:50;2.17;;;1.52;;
12407;SDS011;6268;48.188;17.134;2023-07-29T11:51:22;1.67;;;1.58;;
12407;SDS011;6268;48.188;17.134;2023-07-29T11:53:54;1.52;;;1.42;;
12407;SDS011;6268;48.188;17.134;2023-07-29T11:56:23;2.33;;;2.08;;
12407;SDS011;6268;48.188;17.134;2023-07-29T11:58:52;2.30;;;2.20;;
12407;SDS011;6268;48.188;17.134;2023-07-29T12:01:22;2.35;;;2.25;;
12407;SDS011;6268;48.188;17.134;2023-07-29T12:03:51;2.33;;;2.22;;
12407;SDS011;6268;48.188;17.134;2023-07-29T12:06:20;2.97;;;2.78;;
12407;SDS011;6268;48.188;17.134;2023-07-29T12:08:50;2.28;;;2.17;;
12407;SDS011;6268;48.188;17.134;2023-07-29T12:11:21;2.67;;;2.47;;
12407;SDS011;6268;48.188;17.134;2023-07-29T12:13:50;2.33;;;1.90;;
12407;SDS011;6268;48.188;17.134;2023-07-29T12:16:21;2.38;;;2.25;;
12407;SDS011;6268;48.188;17.134;2023-07-29T12:18:50;2.40;;;2.17;;
12407;SDS011;6268;48.188;17.134;2023-07-29T12:21:19;2.65;;;2.30;;
12407;SDS011;6268;48.188;17.134;2023-07-29T12:23:49;2.05;;;1.95;;
12407;SDS011;6268;48.188;17.134;2023-07-29T12:26:20;2.17;;;2.05;;
12407;SDS011;6268;48.188;17.134;2023-07-29T12:28:49;2.15;;;2.05;;
12407;SDS011;6268;48.188;17.134;2023-07-29T12:31:17;2.20;;;2.10;;
12407;SDS011;6268;48.188;17.134;2023-07-29T12:33:46;1.90;;;1.80;;
12407;SDS011;6268;48.188;17.134;2023-07-29T12:36:17;2.28;;;2.17;;
12407;SDS011;6268;48.188;17.134;2023-07-29T12:38:45;1.58;;;1.25;;
12407;SDS011;6268;48.188;17.134;2023-07-29T12:41:14;1.75;;;1.65;;
12407;SDS011;6268;48.188;17.134;2023-07-29T12:43:44;1.83;;;1.73;;
12407;SDS011;6268;48.188;17.134;2023-07-29T12:46:13;1.88;;;1.77;;
12407;SDS011;6268;48.188;17.134;2023-07-29T12:48:42;1.75;;;1.65;;
12407;SDS011;6268;48.188;17.134;2023-07-29T12:51:10;2.08;;;1.98;;
12407;SDS011;6268;48.188;17.134;2023-07-29T12:53:39;2.08;;;1.98;;
12407;SDS011;6268;48.188;17.134;2023-07-29T12:56:08;2.03;;;1.88;;
12407;SDS011;6268;48.188;17.134;2023-07-29T12:58:36;4.13;;;1.92;;
12407;SDS011;6268;48.188;17.134;2023-07-29T13:01:06;1.85;;;1.75;;
12407;SDS011;6268;48.188;17.134;2023-07-29T13:03:35;1.90;;;1.80;;
12407;SDS011;6268;48.188;17.134;2023-07-29T13:06:04;2.08;;;1.95;;
12407;SDS011;6268;48.188;17.134;2023-07-29T13:08:33;1.90;;;1.80;;
12407;SDS011;6268;48.188;17.134;2023-07-29T13:11:02;1.77;;;1.67;;
12407;SDS011;6268;48.188;17.134;2023-07-29T13:13:31;2.10;;;2.00;;
12407;SDS011;6268;48.188;17.134;2023-07-29T13:16:00;2.10;;;2.00;;
12407;SDS011;6268;48.188;17.134;2023-07-29T13:18:30;2.15;;;2.05;;
12407;SDS011;6268;48.188;17.134;2023-07-29T13:20:59;2.42;;;2.22;;
12407;SDS011;6268;48.188;17.134;2023-07-29T13:23:28;1.90;;;1.80;;
12407;SDS011;6268;48.188;17.134;2023-07-29T13:25:57;2.55;;;1.90;;
12407;SDS011;6268;48.188;17.134;2023-07-29T13:28:25;2.50;;;2.30;;
12407;SDS011;6268;48.188;17.134;2023-07-29T13:30:55;2.30;;;2.10;;
12407;SDS011;6268;48.188;17.134;2023-07-29T13:33:23;2.10;;;2.00;;
12407;SDS011;6268;48.188;17.134;2023-07-29T13:35:54;4.88;;;2.55;;
12407;SDS011;6268;48.188;17.134;2023-07-29T13:38:23;3.42;;;3.20;;
12407;SDS011;6268;48.188;17.134;2023-07-29T13:40:52;16.73;;;15.07;;
12407;SDS011;6268;48.188;17.134;2023-07-29T13:43:21;4.93;;;4.32;;
12407;SDS011;6268;48.188;17.134;2023-07-29T13:45:50;3.05;;;2.80;;
12407;SDS011;6268;48.188;17.134;2023-07-29T13:48:18;2.58;;;2.22;;
12407;SDS011;6268;48.188;17.134;2023-07-29T13:50:47;3.90;;;2.10;;
12407;SDS011;6268;48.188;17.134;2023-07-29T13:53:19;6.93;;;2.30;;
12407;SDS011;6268;48.188;17.134;2023-07-29T13:55:47;2.40;;;2.20;;
12407;SDS011;6268;48.188;17.134;2023-07-29T13:58:18;1.95;;;1.85;;
12407;SDS011;6268;48.188;17.134;2023-07-29T14:00:46;2.00;;;1.90;;
12407;SDS011;6268;48.188;17.134;2023-07-29T14:03:15;2.47;;;2.13;;
12407;SDS011;6268;48.188;17.134;2023-07-29T14:05:44;1.70;;;1.60;;
12407;SDS011;6268;48.188;17.134;2023-07-29T14:08:12;3.55;;;1.80;;
12407;SDS011;6268;48.188;17.134;2023-07-29T14:10:43;3.90;;;1.90;;
12407;SDS011;6268;48.188;17.134;2023-07-29T14:13:11;2.50;;;2.30;;
12407;SDS011;6268;48.188;17.134;2023-07-29T14:15:40;2.10;;;2.00;;
12407;SDS011;6268;48.188;17.134;2023-07-29T14:18:09;2.40;;;2.20;;
12407;SDS011;6268;48.188;17.134;2023-07-29T14:20:38;2.65;;;2.45;;
12407;SDS011;6268;48.188;17.134;2023-07-29T14:23:07;2.83;;;2.53;;
12407;SDS011;6268;48.188;17.134;2023-07-29T14:25:36;2.72;;;2.53;;
12407;SDS011;6268;48.188;17.134;2023-07-29T14:28:06;2.80;;;2.55;;
12407;SDS011;6268;48.188;17.134;2023-07-29T14:30:35;10.98;;;9.95;;
12407;SDS011;6268;48.188;17.134;2023-07-29T14:33:04;8.10;;;7.25;;
12407;SDS011;6268;48.188;17.134;2023-07-29T14:35:33;7.53;;;6.82;;
12407;SDS011;6268;48.188;17.134;2023-07-29T14:38:02;5.70;;;5.00;;
12407;SDS011;6268;48.188;17.134;2023-07-29T14:40:31;3.47;;;2.67;;
12407;SDS011;6268;48.188;17.134;2023-07-29T14:42:59;4.38;;;2.75;;
12407;SDS011;6268;48.188;17.134;2023-07-29T14:45:29;3.22;;;2.97;;
12407;SDS011;6268;48.188;17.134;2023-07-29T14:47:58;3.40;;;2.75;;
12407;SDS011;6268;48.188;17.134;2023-07-29T14:50:27;2.78;;;2.38;;
12407;SDS011;6268;48.188;17.134;2023-07-29T14:52:55;2.25;;;2.13;;
12407;SDS011;6268;48.188;17.134;2023-07-29T14:55:24;2.95;;;2.50;;
12407;SDS011;6268;48.188;17.134;2023-07-29T14:57:53;2.60;;;2.40;;
12407;SDS011;6268;48.188;17.134;2023-07-29T15:00:21;2.53;;;2.17;;
12407;SDS011;6268;48.188;17.134;2023-07-29T15:02:51;2.13;;;2.03;;
12407;SDS011;6268;48.188;17.134;2023-07-29T15:05:21;2.55;;;2.28;;
12407;SDS011;6268;48.188;17.134;2023-07-29T15:07:49;2.85;;;2.65;;
12407;SDS011;6268;48.188;17.134;2023-07-29T15:10:18;2.63;;;2.30;;
12407;SDS011;6268;48.188;17.134;2023-07-29T15:12:47;3.83;;;2.33;;
12407;SDS011;6268;48.188;17.134;2023-07-29T15:15:16;3.47;;;3.17;;
12407;SDS011;6268;48.188;17.134;2023-07-29T15:17:45;2.70;;;2.50;;
12407;SDS011;6268;48.188;17.134;2023-07-29T15:20:15;4.13;;;2.70;;
12407;SDS011;6268;48.188;17.134;2023-07-29T15:22:44;2.20;;;1.83;;
12407;SDS011;6268;48.188;17.134;2023-07-29T15:25:13;3.83;;;2.17;;
12407;SDS011;6268;48.188;17.134;2023-07-29T15:27:42;5.95;;;2.30;;
12407;SDS011;6268;48.188;17.134;2023-07-29T15:30:11;2.03;;;1.80;;